sensor_id;sensor_type;location;lat;lon;timestamp;P1;durP1;ratioP1;P2;durP2;ratioP2
55172;SDS011;41061;52.822;6.860;2023-07-13T00:00:43;7.82;;;1.63;;
55172;SDS011;41061;52.822;6.860;2023-07-13T00:03:10;8.77;;;1.70;;
55172;SDS011;41061;52.822;6.860;2023-07-13T00:05:38;6.65;;;1.42;;
55172;SDS011;41061;52.822;6.860;2023-07-13T00:08:04;9.20;;;1.92;;
55172;SDS011;41061;52.822;6.860;2023-07-13T00:10:30;9.05;;;1.88;;
55172;SDS011;41061;52.822;6.860;2023-07-13T00:12:57;8.20;;;1.98;;
55172;SDS011;41061;52.822;6.860;2023-07-13T00:15:24;7.07;;;1.90;;
55172;SDS011;41061;52.822;6.860;2023-07-13T00:17:54;8.55;;;1.80;;
55172;SDS011;41061;52.822;6.860;2023-07-13T00:20:21;6.35;;;2.20;;
55172;SDS011;41061;52.822;6.860;2023-07-13T00:22:49;8.90;;;2.20;;
55172;SDS011;41061;52.822;6.860;2023-07-13T00:25:17;11.30;;;2.05;;
55172;SDS011;41061;52.822;6.860;2023-07-13T00:27:44;11.55;;;2.17;;
55172;SDS011;41061;52.822;6.860;2023-07-13T00:30:10;7.28;;;2.28;;
55172;SDS011;41061;52.822;6.860;2023-07-13T00:32:37;10.02;;;3.00;;
55172;SDS011;41061;52.822;6.860;2023-07-13T00:35:03;5.38;;;1.60;;
55172;SDS011;41061;52.822;6.860;2023-07-13T00:37:30;9.15;;;1.95;;
55172;SDS011;41061;52.822;6.860;2023-07-13T00:39:57;9.00;;;2.80;;
55172;SDS011;41061;52.822;6.860;2023-07-13T00:42:23;8.25;;;1.80;;
55172;SDS011;41061;52.822;6.860;2023-07-13T00:47:31;6.03;;;1.70;;
55172;SDS011;41061;52.822;6.860;2023-07-13T00:49:57;9.00;;;2.10;;
55172;SDS011;41061;52.822;6.860;2023-07-13T00:52:24;7.60;;;2.08;;
55172;SDS011;41061;52.822;6.860;2023-07-13T00:54:50;6.78;;;1.77;;
55172;SDS011;41061;52.822;6.860;2023-07-13T00:57:17;6.97;;;1.77;;
55172;SDS011;41061;52.822;6.860;2023-07-13T00:59:48;11.85;;;3.13;;
55172;SDS011;41061;52.822;6.860;2023-07-13T01:02:15;7.82;;;2.05;;
55172;SDS011;41061;52.822;6.860;2023-07-13T01:04:41;13.38;;;2.05;;
55172;SDS011;41061;52.822;6.860;2023-07-13T01:07:09;9.48;;;2.17;;
55172;SDS011;41061;52.822;6.860;2023-07-13T01:09:36;6.68;;;1.63;;
55172;SDS011;41061;52.822;6.860;2023-07-13T01:12:03;11.52;;;2.65;;
55172;SDS011;41061;52.822;6.860;2023-07-13T01:14:29;7.78;;;1.90;;
55172;SDS011;41061;52.822;6.860;2023-07-13T01:16:55;14.48;;;2.17;;
55172;SDS011;41061;52.822;6.860;2023-07-13T01:19:41;8.38;;;2.20;;
55172;SDS011;41061;52.822;6.860;2023-07-13T01:22:12;8.93;;;2.38;;
55172;SDS011;41061;52.822;6.860;2023-07-13T01:24:39;11.68;;;1.98;;
55172;SDS011;41061;52.822;6.860;2023-07-13T01:27:06;6.10;;;1.60;;
55172;SDS011;41061;52.822;6.860;2023-07-13T01:29:34;8.13;;;1.75;;
55172;SDS011;41061;52.822;6.860;2023-07-13T01:32:11;10.10;;;2.15;;
55172;SDS011;41061;52.822;6.860;2023-07-13T01:34:37;6.93;;;1.75;;
55172;SDS011;41061;52.822;6.860;2023-07-13T01:37:08;9.73;;;2.05;;
55172;SDS011;41061;52.822;6.860;2023-07-13T01:39:34;9.65;;;2.00;;
55172;SDS011;41061;52.822;6.860;2023-07-13T01:42:00;7.03;;;1.80;;
55172;SDS011;41061;52.822;6.860;2023-07-13T01:44:27;4.55;;;1.80;;
55172;SDS011;41061;52.822;6.860;2023-07-13T01:46:53;8.90;;;2.40;;
55172;SDS011;41061;52.822;6.860;2023-07-13T01:49:19;8.63;;;2.05;;
55172;SDS011;41061;52.822;6.860;2023-07-13T01:51:45;9.02;;;2.20;;
55172;SDS011;41061;52.822;6.860;2023-07-13T01:54:11;9.43;;;1.95;;
55172;SDS011;41061;52.822;6.860;2023-07-13T01:56:38;9.25;;;2.35;;
55172;SDS011;41061;52.822;6.860;2023-07-13T01:59:04;9.63;;;1.90;;
55172;SDS011;41061;52.822;6.860;2023-07-13T02:01:31;12.27;;;2.45;;
55172;SDS011;41061;52.822;6.860;2023-07-13T02:03:57;14.15;;;2.55;;
55172;SDS011;41061;52.822;6.860;2023-07-13T02:06:23;10.43;;;2.72;;
55172;SDS011;41061;52.822;6.860;2023-07-13T02:08:49;10.85;;;2.35;;
55172;SDS011;41061;52.822;6.860;2023-07-13T02:11:15;7.97;;;1.80;;
55172;SDS011;41061;52.822;6.860;2023-07-13T02:13:42;6.53;;;1.92;;
55172;SDS011;41061;52.822;6.860;2023-07-13T02:16:08;8.25;;;1.98;;
55172;SDS011;41061;52.822;6.860;2023-07-13T02:18:34;5.57;;;1.55;;
55172;SDS011;41061;52.822;6.860;2023-07-13T02:21:00;9.15;;;2.00;;
55172;SDS011;41061;52.822;6.860;2023-07-13T02:23:27;7.72;;;1.90;;
55172;SDS011;41061;52.822;6.860;2023-07-13T02:25:57;11.65;;;2.13;;
55172;SDS011;41061;52.822;6.860;2023-07-13T02:28:23;12.75;;;2.22;;
55172;SDS011;41061;52.822;6.860;2023-07-13T02:30:49;9.43;;;2.60;;
55172;SDS011;41061;52.822;6.860;2023-07-13T02:33:15;10.63;;;1.75;;
55172;SDS011;41061;52.822;6.860;2023-07-13T02:35:42;10.82;;;2.30;;
55172;SDS011;41061;52.822;6.860;2023-07-13T02:38:08;14.02;;;3.53;;
55172;SDS011;41061;52.822;6.860;2023-07-13T02:40:34;9.60;;;2.25;;
55172;SDS011;41061;52.822;6.860;2023-07-13T02:43:01;11.25;;;2.15;;
55172;SDS011;41061;52.822;6.860;2023-07-13T02:45:27;6.13;;;2.08;;
55172;SDS011;41061;52.822;6.860;2023-07-13T02:47:54;12.32;;;2.30;;
55172;SDS011;41061;52.822;6.860;2023-07-13T02:50:20;12.30;;;2.20;;
55172;SDS011;41061;52.822;6.860;2023-07-13T02:52:46;11.20;;;1.88;;
55172;SDS011;41061;52.822;6.860;2023-07-13T02:55:12;8.98;;;2.20;;
55172;SDS011;41061;52.822;6.860;2023-07-13T02:57:39;8.80;;;2.03;;
55172;SDS011;41061;52.822;6.860;2023-07-13T03:00:06;11.18;;;2.38;;
55172;SDS011;41061;52.822;6.860;2023-07-13T03:02:33;12.45;;;3.72;;
55172;SDS011;41061;52.822;6.860;2023-07-13T03:04:59;10.98;;;2.60;;
55172;SDS011;41061;52.822;6.860;2023-07-13T03:07:25;9.43;;;2.25;;
55172;SDS011;41061;52.822;6.860;2023-07-13T03:09:55;10.10;;;2.25;;
55172;SDS011;41061;52.822;6.860;2023-07-13T03:12:21;14.35;;;2.60;;
55172;SDS011;41061;52.822;6.860;2023-07-13T03:14:47;11.57;;;2.10;;
55172;SDS011;41061;52.822;6.860;2023-07-13T03:17:13;12.75;;;2.95;;
55172;SDS011;41061;52.822;6.860;2023-07-13T03:19:40;11.23;;;2.75;;
55172;SDS011;41061;52.822;6.860;2023-07-13T03:22:06;8.80;;;2.28;;
55172;SDS011;41061;52.822;6.860;2023-07-13T03:24:33;11.70;;;2.22;;
55172;SDS011;41061;52.822;6.860;2023-07-13T03:27:01;9.57;;;1.98;;
55172;SDS011;41061;52.822;6.860;2023-07-13T03:29:27;10.75;;;1.90;;
55172;SDS011;41061;52.822;6.860;2023-07-13T03:31:53;9.88;;;2.20;;
55172;SDS011;41061;52.822;6.860;2023-07-13T03:34:19;8.43;;;1.98;;
55172;SDS011;41061;52.822;6.860;2023-07-13T03:36:45;11.07;;;2.90;;
55172;SDS011;41061;52.822;6.860;2023-07-13T03:39:11;11.02;;;2.28;;
55172;SDS011;41061;52.822;6.860;2023-07-13T03:41:37;6.05;;;2.08;;
55172;SDS011;41061;52.822;6.860;2023-07-13T03:44:03;13.27;;;2.20;;
55172;SDS011;41061;52.822;6.860;2023-07-13T03:46:30;8.80;;;3.30;;
55172;SDS011;41061;52.822;6.860;2023-07-13T03:48:56;12.80;;;2.75;;
55172;SDS011;41061;52.822;6.860;2023-07-13T03:51:22;9.57;;;1.95;;
55172;SDS011;41061;52.822;6.860;2023-07-13T03:53:49;9.98;;;2.35;;
55172;SDS011;41061;52.822;6.860;2023-07-13T03:56:16;11.45;;;2.60;;
55172;SDS011;41061;52.822;6.860;2023-07-13T03:58:43;8.65;;;2.20;;
55172;SDS011;41061;52.822;6.860;2023-07-13T04:01:10;8.23;;;2.30;;
55172;SDS011;41061;52.822;6.860;2023-07-13T04:03:37;14.43;;;2.20;;
55172;SDS011;41061;52.822;6.860;2023-07-13T04:06:05;9.57;;;2.47;;
55172;SDS011;41061;52.822;6.860;2023-07-13T04:08:35;8.30;;;2.58;;
55172;SDS011;41061;52.822;6.860;2023-07-13T04:11:02;9.30;;;2.50;;
55172;SDS011;41061;52.822;6.860;2023-07-13T04:13:29;11.20;;;2.58;;
55172;SDS011;41061;52.822;6.860;2023-07-13T04:15:55;11.18;;;2.30;;
55172;SDS011;41061;52.822;6.860;2023-07-13T04:18:21;11.32;;;3.03;;
55172;SDS011;41061;52.822;6.860;2023-07-13T04:20:49;13.18;;;2.58;;
55172;SDS011;41061;52.822;6.860;2023-07-13T04:23:19;9.95;;;2.38;;
55172;SDS011;41061;52.822;6.860;2023-07-13T04:25:48;10.40;;;2.50;;
55172;SDS011;41061;52.822;6.860;2023-07-13T04:28:18;9.95;;;2.20;;
55172;SDS011;41061;52.822;6.860;2023-07-13T04:30:44;10.65;;;2.50;;
55172;SDS011;41061;52.822;6.860;2023-07-13T04:33:10;9.23;;;2.50;;
55172;SDS011;41061;52.822;6.860;2023-07-13T04:35:36;11.02;;;2.55;;
55172;SDS011;41061;52.822;6.860;2023-07-13T04:38:03;8.75;;;2.65;;
55172;SDS011;41061;52.822;6.860;2023-07-13T04:40:29;12.57;;;2.72;;
55172;SDS011;41061;52.822;6.860;2023-07-13T04:42:56;7.13;;;2.42;;
55172;SDS011;41061;52.822;6.860;2023-07-13T04:45:24;7.93;;;2.60;;
55172;SDS011;41061;52.822;6.860;2023-07-13T04:47:50;8.95;;;2.83;;
55172;SDS011;41061;52.822;6.860;2023-07-13T04:50:17;9.82;;;3.05;;
55172;SDS011;41061;52.822;6.860;2023-07-13T04:52:48;7.55;;;2.45;;
55172;SDS011;41061;52.822;6.860;2023-07-13T04:55:14;9.90;;;2.58;;
55172;SDS011;41061;52.822;6.860;2023-07-13T04:57:40;5.78;;;2.40;;
55172;SDS011;41061;52.822;6.860;2023-07-13T05:00:06;12.05;;;2.63;;
55172;SDS011;41061;52.822;6.860;2023-07-13T05:02:33;7.18;;;2.90;;
55172;SDS011;41061;52.822;6.860;2023-07-13T05:05:00;8.65;;;2.63;;
55172;SDS011;41061;52.822;6.860;2023-07-13T05:07:26;14.38;;;3.70;;
55172;SDS011;41061;52.822;6.860;2023-07-13T05:09:52;11.38;;;3.08;;
55172;SDS011;41061;52.822;6.860;2023-07-13T05:12:18;11.35;;;2.85;;
55172;SDS011;41061;52.822;6.860;2023-07-13T05:14:45;11.88;;;2.92;;
55172;SDS011;41061;52.822;6.860;2023-07-13T05:17:11;10.80;;;2.90;;
55172;SDS011;41061;52.822;6.860;2023-07-13T05:19:37;8.32;;;2.70;;
55172;SDS011;41061;52.822;6.860;2023-07-13T05:22:03;10.75;;;3.13;;
55172;SDS011;41061;52.822;6.860;2023-07-13T05:24:30;9.80;;;3.22;;
55172;SDS011;41061;52.822;6.860;2023-07-13T05:26:56;13.32;;;2.50;;
55172;SDS011;41061;52.822;6.860;2023-07-13T05:29:22;9.68;;;2.72;;
55172;SDS011;41061;52.822;6.860;2023-07-13T05:31:48;12.50;;;3.03;;
55172;SDS011;41061;52.822;6.860;2023-07-13T05:34:15;11.00;;;3.33;;
55172;SDS011;41061;52.822;6.860;2023-07-13T05:36:41;14.50;;;3.50;;
55172;SDS011;41061;52.822;6.860;2023-07-13T05:39:07;11.27;;;2.78;;
55172;SDS011;41061;52.822;6.860;2023-07-13T05:41:33;8.88;;;2.60;;
55172;SDS011;41061;52.822;6.860;2023-07-13T05:43:59;9.30;;;3.13;;
55172;SDS011;41061;52.822;6.860;2023-07-13T05:46:26;9.75;;;2.72;;
55172;SDS011;41061;52.822;6.860;2023-07-13T05:48:52;9.85;;;2.92;;
55172;SDS011;41061;52.822;6.860;2023-07-13T05:51:18;9.55;;;2.85;;
55172;SDS011;41061;52.822;6.860;2023-07-13T05:53:44;10.52;;;2.55;;
55172;SDS011;41061;52.822;6.860;2023-07-13T05:56:10;11.68;;;2.65;;
55172;SDS011;41061;52.822;6.860;2023-07-13T05:58:37;10.20;;;2.60;;
55172;SDS011;41061;52.822;6.860;2023-07-13T06:01:04;12.90;;;3.40;;
55172;SDS011;41061;52.822;6.860;2023-07-13T06:03:31;13.00;;;2.80;;
55172;SDS011;41061;52.822;6.860;2023-07-13T06:05:57;10.57;;;2.80;;
55172;SDS011;41061;52.822;6.860;2023-07-13T06:08:25;12.85;;;2.85;;
55172;SDS011;41061;52.822;6.860;2023-07-13T06:10:51;8.80;;;2.83;;
55172;SDS011;41061;52.822;6.860;2023-07-13T06:13:17;6.72;;;2.70;;
55172;SDS011;41061;52.822;6.860;2023-07-13T06:15:48;9.25;;;2.30;;
55172;SDS011;41061;52.822;6.860;2023-07-13T06:18:14;6.40;;;2.22;;
55172;SDS011;41061;52.822;6.860;2023-07-13T06:20:40;5.13;;;2.75;;
55172;SDS011;41061;52.822;6.860;2023-07-13T06:23:06;13.63;;;3.40;;
55172;SDS011;41061;52.822;6.860;2023-07-13T06:25:32;14.35;;;2.95;;
55172;SDS011;41061;52.822;6.860;2023-07-13T06:27:59;8.55;;;2.58;;
55172;SDS011;41061;52.822;6.860;2023-07-13T06:30:25;15.45;;;4.38;;
55172;SDS011;41061;52.822;6.860;2023-07-13T06:32:52;10.38;;;2.83;;
55172;SDS011;41061;52.822;6.860;2023-07-13T06:35:18;9.02;;;2.80;;
55172;SDS011;41061;52.822;6.860;2023-07-13T06:37:44;10.23;;;2.50;;
55172;SDS011;41061;52.822;6.860;2023-07-13T06:40:10;8.98;;;2.90;;
55172;SDS011;41061;52.822;6.860;2023-07-13T06:42:36;7.05;;;2.50;;
55172;SDS011;41061;52.822;6.860;2023-07-13T06:45:03;7.32;;;3.08;;
55172;SDS011;41061;52.822;6.860;2023-07-13T06:47:30;11.40;;;2.78;;
55172;SDS011;41061;52.822;6.860;2023-07-13T06:49:56;12.27;;;3.42;;
55172;SDS011;41061;52.822;6.860;2023-07-13T06:52:22;10.32;;;3.63;;
55172;SDS011;41061;52.822;6.860;2023-07-13T06:54:48;9.60;;;3.42;;
55172;SDS011;41061;52.822;6.860;2023-07-13T06:57:14;6.97;;;2.10;;
55172;SDS011;41061;52.822;6.860;2023-07-13T06:59:40;7.05;;;2.47;;
55172;SDS011;41061;52.822;6.860;2023-07-13T07:02:08;9.75;;;2.90;;
55172;SDS011;41061;52.822;6.860;2023-07-13T07:04:34;7.63;;;2.38;;
55172;SDS011;41061;52.822;6.860;2023-07-13T07:07:01;9.07;;;2.55;;
55172;SDS011;41061;52.822;6.860;2023-07-13T07:09:27;12.05;;;2.80;;
55172;SDS011;41061;52.822;6.860;2023-07-13T07:11:55;9.98;;;2.50;;
55172;SDS011;41061;52.822;6.860;2023-07-13T07:14:21;8.07;;;2.42;;
55172;SDS011;41061;52.822;6.860;2023-07-13T07:16:47;10.32;;;2.83;;
55172;SDS011;41061;52.822;6.860;2023-07-13T07:19:13;11.85;;;2.70;;
55172;SDS011;41061;52.822;6.860;2023-07-13T07:21:40;17.30;;;2.78;;
55172;SDS011;41061;52.822;6.860;2023-07-13T07:24:06;8.20;;;2.80;;
55172;SDS011;41061;52.822;6.860;2023-07-13T07:26:32;9.48;;;2.65;;
55172;SDS011;41061;52.822;6.860;2023-07-13T07:28:59;8.90;;;2.83;;
55172;SDS011;41061;52.822;6.860;2023-07-13T07:31:25;12.65;;;2.70;;
55172;SDS011;41061;52.822;6.860;2023-07-13T07:33:51;5.50;;;2.15;;
55172;SDS011;41061;52.822;6.860;2023-07-13T07:36:17;14.13;;;2.95;;
55172;SDS011;41061;52.822;6.860;2023-07-13T07:38:43;12.35;;;2.90;;
55172;SDS011;41061;52.822;6.860;2023-07-13T07:41:09;10.27;;;2.58;;
55172;SDS011;41061;52.822;6.860;2023-07-13T07:43:36;9.95;;;2.63;;
55172;SDS011;41061;52.822;6.860;2023-07-13T07:46:02;10.52;;;2.45;;
55172;SDS011;41061;52.822;6.860;2023-07-13T07:48:28;10.05;;;2.55;;
55172;SDS011;41061;52.822;6.860;2023-07-13T07:50:55;8.38;;;2.30;;
55172;SDS011;41061;52.822;6.860;2023-07-13T07:53:21;7.15;;;2.80;;
55172;SDS011;41061;52.822;6.860;2023-07-13T07:55:47;8.95;;;2.45;;
55172;SDS011;41061;52.822;6.860;2023-07-13T07:58:14;6.35;;;2.17;;
55172;SDS011;41061;52.822;6.860;2023-07-13T08:00:40;7.38;;;2.60;;
55172;SDS011;41061;52.822;6.860;2023-07-13T08:03:06;13.30;;;2.47;;
55172;SDS011;41061;52.822;6.860;2023-07-13T08:05:34;10.18;;;2.80;;
55172;SDS011;41061;52.822;6.860;2023-07-13T08:08:00;11.30;;;2.60;;
55172;SDS011;41061;52.822;6.860;2023-07-13T08:10:27;13.77;;;2.80;;
55172;SDS011;41061;52.822;6.860;2023-07-13T08:12:53;11.75;;;2.88;;
55172;SDS011;41061;52.822;6.860;2023-07-13T08:15:19;13.68;;;2.70;;
55172;SDS011;41061;52.822;6.860;2023-07-13T08:17:46;13.75;;;2.95;;
55172;SDS011;41061;52.822;6.860;2023-07-13T08:20:13;11.88;;;2.70;;
55172;SDS011;41061;52.822;6.860;2023-07-13T08:22:39;10.18;;;3.58;;
55172;SDS011;41061;52.822;6.860;2023-07-13T08:25:05;10.48;;;3.25;;
55172;SDS011;41061;52.822;6.860;2023-07-13T08:27:32;10.73;;;3.20;;
55172;SDS011;41061;52.822;6.860;2023-07-13T08:29:58;9.95;;;3.10;;
55172;SDS011;41061;52.822;6.860;2023-07-13T08:32:24;11.20;;;3.60;;
55172;SDS011;41061;52.822;6.860;2023-07-13T08:34:51;9.45;;;3.20;;
55172;SDS011;41061;52.822;6.860;2023-07-13T08:37:17;13.13;;;2.88;;
55172;SDS011;41061;52.822;6.860;2023-07-13T08:39:44;10.52;;;3.28;;
55172;SDS011;41061;52.822;6.860;2023-07-13T08:47:18;10.18;;;3.08;;
55172;SDS011;41061;52.822;6.860;2023-07-13T08:49:48;9.55;;;3.78;;
55172;SDS011;41061;52.822;6.860;2023-07-13T08:52:21;12.07;;;3.17;;
55172;SDS011;41061;52.822;6.860;2023-07-13T08:54:52;10.93;;;3.17;;
55172;SDS011;41061;52.822;6.860;2023-07-13T08:57:19;14.00;;;4.18;;
55172;SDS011;41061;52.822;6.860;2023-07-13T08:59:46;14.07;;;4.18;;
55172;SDS011;41061;52.822;6.860;2023-07-13T09:15:06;3.10;;;1.30;;
55172;SDS011;41061;52.822;6.860;2023-07-13T09:17:41;4.32;;;1.70;;
55172;SDS011;41061;52.822;6.860;2023-07-13T09:20:13;6.90;;;2.80;;
55172;SDS011;41061;52.822;6.860;2023-07-13T09:22:43;9.35;;;2.50;;
55172;SDS011;41061;52.822;6.860;2023-07-13T09:25:21;6.20;;;2.65;;
55172;SDS011;41061;52.822;6.860;2023-07-13T09:27:50;4.97;;;1.45;;
55172;SDS011;41061;52.822;6.860;2023-07-13T09:30:41;9.68;;;2.22;;
55172;SDS011;41061;52.822;6.860;2023-07-13T09:33:09;5.07;;;1.80;;
55172;SDS011;41061;52.822;6.860;2023-07-13T09:35:35;4.10;;;1.60;;
55172;SDS011;41061;52.822;6.860;2023-07-13T09:38:04;1.40;;;1.10;;
55172;SDS011;41061;52.822;6.860;2023-07-13T09:43:03;2.80;;;1.00;;
55172;SDS011;41061;52.822;6.860;2023-07-13T09:45:34;5.35;;;1.65;;
55172;SDS011;41061;52.822;6.860;2023-07-13T09:48:06;3.78;;;1.73;;
55172;SDS011;41061;52.822;6.860;2023-07-13T09:50:34;3.38;;;2.13;;
55172;SDS011;41061;52.822;6.860;2023-07-13T09:53:00;2.17;;;1.33;;
55172;SDS011;41061;52.822;6.860;2023-07-13T09:57:56;2.42;;;1.13;;
55172;SDS011;41061;52.822;6.860;2023-07-13T10:00:26;4.53;;;1.48;;
55172;SDS011;41061;52.822;6.860;2023-07-13T10:03:03;2.88;;;1.20;;
55172;SDS011;41061;52.822;6.860;2023-07-13T10:05:37;1.40;;;0.90;;
55172;SDS011;41061;52.822;6.860;2023-07-13T10:08:03;2.22;;;1.13;;
55172;SDS011;41061;52.822;6.860;2023-07-13T10:10:32;2.05;;;1.00;;
55172;SDS011;41061;52.822;6.860;2023-07-13T10:13:00;3.20;;;1.00;;
55172;SDS011;41061;52.822;6.860;2023-07-13T10:15:29;2.47;;;0.90;;
55172;SDS011;41061;52.822;6.860;2023-07-13T10:17:56;2.15;;;1.00;;
55172;SDS011;41061;52.822;6.860;2023-07-13T10:20:24;2.38;;;1.00;;
55172;SDS011;41061;52.822;6.860;2023-07-13T10:23:00;2.95;;;1.02;;
55172;SDS011;41061;52.822;6.860;2023-07-13T10:25:29;1.67;;;1.13;;
55172;SDS011;41061;52.822;6.860;2023-07-13T10:27:58;1.85;;;1.02;;
55172;SDS011;41061;52.822;6.860;2023-07-13T10:30:30;1.52;;;0.85;;
55172;SDS011;41061;52.822;6.860;2023-07-13T10:32:58;1.70;;;1.35;;
55172;SDS011;41061;52.822;6.860;2023-07-13T10:35:24;2.72;;;1.30;;
55172;SDS011;41061;52.822;6.860;2023-07-13T10:38:00;1.60;;;1.33;;
55172;SDS011;41061;52.822;6.860;2023-07-13T10:41:14;2.70;;;1.40;;
55172;SDS011;41061;52.822;6.860;2023-07-13T10:43:43;1.83;;;1.42;;
55172;SDS011;41061;52.822;6.860;2023-07-13T10:46:08;3.45;;;1.80;;
55172;SDS011;41061;52.822;6.860;2023-07-13T10:48:35;2.70;;;2.00;;
55172;SDS011;41061;52.822;6.860;2023-07-13T10:51:03;4.25;;;2.00;;
55172;SDS011;41061;52.822;6.860;2023-07-13T10:53:35;3.63;;;1.98;;
55172;SDS011;41061;52.822;6.860;2023-07-13T10:58:41;5.15;;;2.10;;
55172;SDS011;41061;52.822;6.860;2023-07-13T11:06:15;6.00;;;2.38;;
55172;SDS011;41061;52.822;6.860;2023-07-13T11:14:00;7.38;;;3.08;;
55172;SDS011;41061;52.822;6.860;2023-07-13T11:16:34;5.65;;;2.70;;
55172;SDS011;41061;52.822;6.860;2023-07-13T11:21:30;8.55;;;2.90;;
55172;SDS011;41061;52.822;6.860;2023-07-13T11:26:42;5.18;;;2.55;;
55172;SDS011;41061;52.822;6.860;2023-07-13T11:29:14;4.75;;;2.30;;
55172;SDS011;41061;52.822;6.860;2023-07-13T11:31:41;4.18;;;2.40;;
55172;SDS011;41061;52.822;6.860;2023-07-13T11:34:14;7.80;;;2.80;;
55172;SDS011;41061;52.822;6.860;2023-07-13T11:36:44;4.68;;;2.78;;
55172;SDS011;41061;52.822;6.860;2023-07-13T11:39:21;3.47;;;2.10;;
55172;SDS011;41061;52.822;6.860;2023-07-13T11:41:51;4.10;;;1.88;;
55172;SDS011;41061;52.822;6.860;2023-07-13T11:44:19;6.07;;;1.65;;
55172;SDS011;41061;52.822;6.860;2023-07-13T11:47:28;3.70;;;1.88;;
55172;SDS011;41061;52.822;6.860;2023-07-13T11:49:45;2.60;;;1.50;;
55172;SDS011;41061;52.822;6.860;2023-07-13T11:52:18;2.92;;;1.30;;
55172;SDS011;41061;52.822;6.860;2023-07-13T11:54:56;2.47;;;1.42;;
55172;SDS011;41061;52.822;6.860;2023-07-13T11:57:38;4.07;;;2.00;;
55172;SDS011;41061;52.822;6.860;2023-07-13T12:00:13;3.17;;;1.52;;
55172;SDS011;41061;52.822;6.860;2023-07-13T12:02:45;5.00;;;1.70;;
55172;SDS011;41061;52.822;6.860;2023-07-13T12:05:12;2.25;;;1.30;;
55172;SDS011;41061;52.822;6.860;2023-07-13T12:07:39;4.45;;;2.00;;
55172;SDS011;41061;52.822;6.860;2023-07-13T12:12:37;3.63;;;1.60;;
55172;SDS011;41061;52.822;6.860;2023-07-13T12:15:07;4.22;;;1.60;;
55172;SDS011;41061;52.822;6.860;2023-07-13T12:17:34;3.15;;;1.60;;
55172;SDS011;41061;52.822;6.860;2023-07-13T12:20:03;3.63;;;1.70;;
55172;SDS011;41061;52.822;6.860;2023-07-13T12:22:33;4.97;;;2.10;;
55172;SDS011;41061;52.822;6.860;2023-07-13T12:25:00;3.60;;;2.00;;
55172;SDS011;41061;52.822;6.860;2023-07-13T12:27:27;7.78;;;2.60;;
55172;SDS011;41061;52.822;6.860;2023-07-13T12:30:01;5.07;;;2.40;;
55172;SDS011;41061;52.822;6.860;2023-07-13T12:32:28;5.90;;;2.28;;
55172;SDS011;41061;52.822;6.860;2023-07-13T12:34:57;5.55;;;2.55;;
55172;SDS011;41061;52.822;6.860;2023-07-13T12:37:23;5.63;;;2.00;;
55172;SDS011;41061;52.822;6.860;2023-07-13T12:39:51;7.75;;;2.65;;
55172;SDS011;41061;52.822;6.860;2023-07-13T12:44:45;6.28;;;2.20;;
55172;SDS011;41061;52.822;6.860;2023-07-13T12:47:12;8.82;;;2.90;;
55172;SDS011;41061;52.822;6.860;2023-07-13T12:49:43;6.50;;;2.40;;
55172;SDS011;41061;52.822;6.860;2023-07-13T12:52:16;4.68;;;2.40;;
55172;SDS011;41061;52.822;6.860;2023-07-13T12:54:52;3.72;;;2.05;;
55172;SDS011;41061;52.822;6.860;2023-07-13T12:57:21;5.80;;;2.25;;
55172;SDS011;41061;52.822;6.860;2023-07-13T12:59:47;6.60;;;2.38;;
55172;SDS011;41061;52.822;6.860;2023-07-13T13:02:30;4.85;;;2.22;;
55172;SDS011;41061;52.822;6.860;2023-07-13T13:04:58;7.30;;;2.45;;
55172;SDS011;41061;52.822;6.860;2023-07-13T13:07:24;3.70;;;1.98;;
55172;SDS011;41061;52.822;6.860;2023-07-13T13:09:51;4.20;;;2.30;;
55172;SDS011;41061;52.822;6.860;2023-07-13T13:12:18;6.05;;;2.00;;
55172;SDS011;41061;52.822;6.860;2023-07-13T13:14:44;8.20;;;1.85;;
55172;SDS011;41061;52.822;6.860;2023-07-13T13:17:17;6.43;;;1.70;;
55172;SDS011;41061;52.822;6.860;2023-07-13T13:19:44;3.17;;;1.30;;
55172;SDS011;41061;52.822;6.860;2023-07-13T13:22:11;4.47;;;1.60;;
55172;SDS011;41061;52.822;6.860;2023-07-13T13:24:37;3.13;;;1.35;;
55172;SDS011;41061;52.822;6.860;2023-07-13T13:27:03;2.97;;;1.17;;
55172;SDS011;41061;52.822;6.860;2023-07-13T13:29:31;3.33;;;0.75;;
55172;SDS011;41061;52.822;6.860;2023-07-13T13:31:58;4.20;;;1.20;;
55172;SDS011;41061;52.822;6.860;2023-07-13T13:34:24;8.25;;;1.25;;
55172;SDS011;41061;52.822;6.860;2023-07-13T13:36:52;3.28;;;0.80;;
55172;SDS011;41061;52.822;6.860;2023-07-13T13:41:48;2.67;;;0.82;;
55172;SDS011;41061;52.822;6.860;2023-07-13T13:44:15;6.18;;;0.98;;
55172;SDS011;41061;52.822;6.860;2023-07-13T13:46:42;2.05;;;0.93;;
55172;SDS011;41061;52.822;6.860;2023-07-13T13:49:18;3.15;;;0.98;;
55172;SDS011;41061;52.822;6.860;2023-07-13T13:51:45;3.22;;;0.70;;
55172;SDS011;41061;52.822;6.860;2023-07-13T13:54:12;5.07;;;0.98;;
55172;SDS011;41061;52.822;6.860;2023-07-13T13:56:40;4.35;;;1.40;;
55172;SDS011;41061;52.822;6.860;2023-07-13T13:59:06;1.58;;;0.82;;
55172;SDS011;41061;52.822;6.860;2023-07-13T14:01:34;2.22;;;0.75;;
55172;SDS011;41061;52.822;6.860;2023-07-13T14:04:00;5.30;;;0.80;;
55172;SDS011;41061;52.822;6.860;2023-07-13T14:06:26;4.30;;;0.88;;
55172;SDS011;41061;52.822;6.860;2023-07-13T14:08:53;1.58;;;0.70;;
55172;SDS011;41061;52.822;6.860;2023-07-13T14:11:20;4.38;;;0.90;;
55172;SDS011;41061;52.822;6.860;2023-07-13T14:13:52;2.22;;;1.00;;
55172;SDS011;41061;52.822;6.860;2023-07-13T14:16:19;2.42;;;0.77;;
55172;SDS011;41061;52.822;6.860;2023-07-13T14:18:46;1.30;;;0.70;;
55172;SDS011;41061;52.822;6.860;2023-07-13T14:21:13;2.28;;;0.75;;
55172;SDS011;41061;52.822;6.860;2023-07-13T14:23:40;4.05;;;0.95;;
55172;SDS011;41061;52.822;6.860;2023-07-13T14:26:08;2.00;;;0.85;;
55172;SDS011;41061;52.822;6.860;2023-07-13T14:28:35;5.05;;;1.17;;
55172;SDS011;41061;52.822;6.860;2023-07-13T14:31:02;2.80;;;0.93;;
55172;SDS011;41061;52.822;6.860;2023-07-13T14:33:28;2.50;;;0.82;;
55172;SDS011;41061;52.822;6.860;2023-07-13T14:35:55;2.65;;;0.90;;
55172;SDS011;41061;52.822;6.860;2023-07-13T14:38:21;3.20;;;0.65;;
55172;SDS011;41061;52.822;6.860;2023-07-13T14:40:47;2.65;;;0.80;;
55172;SDS011;41061;52.822;6.860;2023-07-13T14:43:15;3.47;;;0.90;;
55172;SDS011;41061;52.822;6.860;2023-07-13T14:45:43;2.55;;;1.05;;
55172;SDS011;41061;52.822;6.860;2023-07-13T14:48:20;4.63;;;1.13;;
55172;SDS011;41061;52.822;6.860;2023-07-13T14:50:47;1.60;;;0.75;;
55172;SDS011;41061;52.822;6.860;2023-07-13T14:53:13;3.05;;;0.85;;
55172;SDS011;41061;52.822;6.860;2023-07-13T14:55:39;3.38;;;0.98;;
55172;SDS011;41061;52.822;6.860;2023-07-13T14:58:07;2.10;;;0.80;;
55172;SDS011;41061;52.822;6.860;2023-07-13T15:00:34;3.63;;;0.93;;
55172;SDS011;41061;52.822;6.860;2023-07-13T15:03:00;3.03;;;1.00;;
55172;SDS011;41061;52.822;6.860;2023-07-13T15:05:28;2.75;;;0.80;;
55172;SDS011;41061;52.822;6.860;2023-07-13T15:07:57;2.55;;;0.73;;
55172;SDS011;41061;52.822;6.860;2023-07-13T15:10:25;4.28;;;1.02;;
55172;SDS011;41061;52.822;6.860;2023-07-13T15:12:52;3.75;;;1.08;;
55172;SDS011;41061;52.822;6.860;2023-07-13T15:15:19;3.17;;;1.00;;
55172;SDS011;41061;52.822;6.860;2023-07-13T15:17:46;2.72;;;1.10;;
55172;SDS011;41061;52.822;6.860;2023-07-13T15:22:51;3.30;;;1.23;;
55172;SDS011;41061;52.822;6.860;2023-07-13T15:25:18;2.20;;;0.82;;
55172;SDS011;41061;52.822;6.860;2023-07-13T15:27:45;2.80;;;1.20;;
55172;SDS011;41061;52.822;6.860;2023-07-13T15:30:11;3.40;;;1.20;;
55172;SDS011;41061;52.822;6.860;2023-07-13T15:32:38;7.10;;;1.40;;
55172;SDS011;41061;52.822;6.860;2023-07-13T15:35:05;3.20;;;1.02;;
55172;SDS011;41061;52.822;6.860;2023-07-13T15:37:31;5.40;;;1.65;;
55172;SDS011;41061;52.822;6.860;2023-07-13T15:39:57;6.03;;;1.60;;